Time;durP1;ratioP1;P1;durP2;ratioP2;P2;SDS_P1;SDS_P2;PMS_P1;PMS_P2;Temp;Humidity;BMP_temperature;BMP_pressure;BME280_temperature;BME280_humidity;BME280_pressure;Samples;Min_cycle;Max_cycle;Signal;HPM_P1;HPM_P2
2021/08/23 00:00:16;;;;;;;2.70;2.25;;;;;;;19.49;67.06;100913.47;5010337;28;20100;-51
2021/08/23 00:02:42;;;;;;;4.65;3.15;;;;;;;19.50;67.16;100914.34;5011816;28;20121;-51
2021/08/23 00:05:07;;;;;;;3.03;2.70;;;;;;;19.47;67.11;100906.44;5011267;28;20044;-51
2021/08/23 00:07:33;;;;;;;3.47;2.80;;;;;;;19.49;67.08;100904.56;4993172;28;20494;-51
2021/08/23 00:09:58;;;;;;;4.35;2.83;;;;;;;19.50;67.15;100908.97;5010830;28;20494;-52
2021/08/23 00:12:24;;;;;;;4.95;3.20;;;;;;;19.47;67.12;100918.00;4991845;28;20036;-51
2021/08/23 00:14:51;;;;;;;4.18;3.28;;;;;;;19.47;67.25;100922.47;5009124;28;20013;-52
2021/08/23 00:17:16;;;;;;;2.40;2.20;;;;;;;19.46;67.36;100912.72;5009256;28;20166;-51
2021/08/23 00:19:41;;;;;;;3.08;2.78;;;;;;;19.45;67.35;100903.84;5010354;28;20489;-51
2021/08/23 00:24:52;;;;;;;2.05;1.88;;;;;;;19.42;67.40;100897.75;5008896;28;20169;-51
2021/08/23 00:27:17;;;;;;;3.60;2.70;;;;;;;19.42;67.26;100898.63;5008128;28;20510;-51
2021/08/23 00:29:45;;;;;;;2.90;2.33;;;;;;;19.44;67.11;100895.91;5009356;28;20022;-51
2021/08/23 00:32:10;;;;;;;3.40;2.60;;;;;;;19.43;67.12;100889.66;5010489;28;20481;-52
2021/08/23 00:34:35;;;;;;;3.38;2.67;;;;;;;19.42;67.20;100881.72;5006107;28;20041;-51
2021/08/23 00:37:01;;;;;;;2.40;2.20;;;;;;;19.42;67.16;100881.72;5009264;28;20431;-51
2021/08/23 00:39:26;;;;;;;2.40;1.90;;;;;;;19.42;67.13;100884.38;5007977;28;20044;-51
2021/08/23 00:41:52;;;;;;;3.13;2.30;;;;;;;19.43;67.05;100883.44;4992270;28;20021;-53
2021/08/23 00:44:17;;;;;;;2.75;2.10;;;;;;;19.43;67.08;100883.44;5010804;28;20026;-51
2021/08/23 00:46:42;;;;;;;2.63;2.15;;;;;;;19.42;67.09;100887.06;5009581;28;20057;-51
2021/08/23 00:49:08;;;;;;;3.58;2.75;;;;;;;19.43;67.05;100888.78;4993597;28;20032;-51
2021/08/23 00:51:33;;;;;;;2.40;2.15;;;;;;;19.41;67.19;100879.97;5009978;28;20029;-51
2021/08/23 00:53:58;;;;;;;2.30;1.77;;;;;;;19.42;67.01;100887.94;5008863;28;20501;-52
2021/08/23 00:56:24;;;;;;;3.45;1.98;;;;;;;19.41;67.13;100896.03;5007840;28;20105;-51
2021/08/23 00:58:49;;;;;;;2.55;1.95;;;;;;;19.43;67.00;100891.47;5007683;28;20583;-51
2021/08/23 01:01:18;;;;;;;2.28;2.05;;;;;;;19.41;67.17;100888.84;4991333;28;20436;-51
2021/08/23 01:03:53;;;;;;;2.22;2.00;;;;;;;19.43;67.20;100894.13;4988535;28;20481;-51
2021/08/23 01:06:19;;;;;;;2.83;1.80;;;;;;;19.43;67.02;100895.00;4988642;28;20057;-53
2021/08/23 01:08:46;;;;;;;2.42;2.10;;;;;;;19.41;67.06;100902.22;4991283;28;20203;-52
2021/08/23 01:11:12;;;;;;;2.38;2.17;;;;;;;19.43;67.15;100896.81;5009700;28;20501;-51
2021/08/23 01:13:43;;;;;;;2.88;1.90;;;;;;;19.40;67.27;100897.81;4993082;28;20021;-52
2021/08/23 01:16:08;;;;;;;1.65;1.55;;;;;;;19.39;67.32;100885.38;5010456;28;20040;-51
2021/08/23 01:18:34;;;;;;;3.03;1.70;;;;;;;19.38;67.01;100890.78;5009420;28;20478;-51
2021/08/23 01:21:00;;;;;;;2.47;1.73;;;;;;;19.39;67.04;100887.19;5009941;28;20474;-52
2021/08/23 01:23:25;;;;;;;1.88;1.60;;;;;;;19.37;67.12;100892.59;5008749;28;20076;-53
2021/08/23 01:25:51;;;;;;;3.08;1.85;;;;;;;19.37;67.06;100881.91;4992361;28;20034;-52
2021/08/23 01:28:28;;;;;;;2.20;1.67;;;;;;;19.36;67.45;100881.03;4993511;28;20061;-52
2021/08/23 01:31:11;;;;;;;2.17;1.92;;;;;;;19.38;67.13;100886.31;5006031;28;20022;-52
2021/08/23 01:33:37;;;;;;;2.55;1.83;;;;;;;19.36;67.07;100878.38;5003977;28;20057;-51
2021/08/23 01:36:03;;;;;;;2.17;1.98;;;;;;;19.36;67.18;100877.50;4990488;28;20109;-51
2021/08/23 01:38:29;;;;;;;2.35;2.15;;;;;;;19.35;67.24;100879.28;5005909;28;20104;-52
2021/08/23 01:41:00;;;;;;;2.25;1.90;;;;;;;19.34;67.19;100877.56;5010189;28;20025;-51
2021/08/23 01:43:26;;;;;;;3.13;1.70;;;;;;;19.35;67.18;100876.59;5008019;28;20338;-51
2021/08/23 01:45:51;;;;;;;3.00;1.77;;;;;;;19.35;67.20;100876.59;5004235;28;20022;-51
2021/08/23 01:48:16;;;;;;;2.55;1.90;;;;;;;19.33;67.26;100870.47;4992492;28;20502;-51
2021/08/23 01:50:42;;;;;;;2.88;2.30;;;;;;;19.33;67.26;100878.50;5007999;28;20029;-51
2021/08/23 01:53:07;;;;;;;2.53;1.70;;;;;;;19.31;67.32;100877.69;5007708;28;20029;-51
2021/08/23 01:55:32;;;;;;;2.10;1.75;;;;;;;19.33;67.07;100873.16;5007780;28;20021;-50
2021/08/23 01:57:57;;;;;;;2.38;2.17;;;;;;;19.30;67.11;100873.28;5006045;28;20358;-51
2021/08/23 02:00:23;;;;;;;3.30;2.50;;;;;;;19.33;67.24;100866.91;5009800;28;20155;-52
2021/08/23 02:02:48;;;;;;;2.47;2.25;;;;;;;19.29;67.24;100866.19;5005166;28;20121;-51
2021/08/23 02:05:13;;;;;;;2.60;2.40;;;;;;;19.28;67.33;100863.59;5008163;28;20037;-52
2021/08/23 02:07:39;;;;;;;2.60;2.40;;;;;;;19.30;67.37;100862.56;5008321;28;20508;-51
2021/08/23 02:10:06;;;;;;;3.08;2.75;;;;;;;19.28;67.32;100853.78;5008942;28;20064;-52
2021/08/23 02:12:31;;;;;;;3.65;2.85;;;;;;;19.30;67.24;100849.22;4991077;28;20037;-50
2021/08/23 02:14:56;;;;;;;2.53;2.33;;;;;;;19.27;67.24;100845.81;5008004;28;20026;-51
2021/08/23 02:17:21;;;;;;;2.95;2.67;;;;;;;19.26;67.32;100844.94;5009496;28;20033;-52
2021/08/23 02:19:47;;;;;;;2.70;2.50;;;;;;;19.26;67.37;100855.63;5008456;28;20482;-51
2021/08/23 02:22:12;;;;;;;3.00;2.70;;;;;;;19.26;67.56;100850.28;5007453;28;20025;-51
2021/08/23 02:24:37;;;;;;;4.38;3.97;;;;;;;19.27;67.66;100857.34;5006167;28;20021;-52
2021/08/23 02:27:03;;;;;;;4.00;3.33;;;;;;;19.27;67.43;100852.00;4991726;28;20026;-52
2021/08/23 02:29:28;;;;;;;4.03;3.55;;;;;;;19.27;67.71;100857.34;5006324;28;20030;-52
2021/08/23 02:31:53;;;;;;;3.45;3.15;;;;;;;19.26;67.44;100865.44;5007583;28;20029;-52
2021/08/23 02:34:19;;;;;;;3.67;3.38;;;;;;;19.23;67.58;100867.31;5007890;28;20022;-51
2021/08/23 02:36:44;;;;;;;5.10;4.40;;;;;;;19.25;67.58;100867.25;5007365;28;20022;-51
2021/08/23 02:39:09;;;;;;;7.00;3.90;;;;;;;19.23;67.55;100867.31;5005335;28;20401;-51
2021/08/23 02:41:35;;;;;;;5.75;4.93;;;;;;;19.22;67.60;100862.03;5007597;28;20030;-51
2021/08/23 02:44:00;;;;;;;5.15;4.65;;;;;;;19.23;67.53;100869.13;5006647;28;20029;-52
2021/08/23 02:46:25;;;;;;;5.38;4.88;;;;;;;19.22;67.64;100864.72;5006434;28;20027;-51
2021/08/23 02:48:51;;;;;;;5.03;4.57;;;;;;;19.21;67.56;100865.66;5005601;28;20027;-51
2021/08/23 02:51:16;;;;;;;6.43;5.82;;;;;;;19.22;67.62;100870.06;5007788;28;20028;-51
2021/08/23 02:53:41;;;;;;;7.47;5.85;;;;;;;19.19;67.65;100870.19;4981333;28;20019;-51
2021/08/23 02:56:07;;;;;;;6.57;5.22;;;;;;;19.19;67.71;100870.19;4989948;28;20025;-51
2021/08/23 02:58:33;;;;;;;6.47;5.65;;;;;;;19.16;67.86;100875.66;5005685;28;20033;-51
2021/08/23 03:00:59;;;;;;;6.95;6.15;;;;;;;19.16;68.15;100883.69;5005679;28;20030;-51
2021/08/23 03:03:24;;;;;;;7.03;6.32;;;;;;;19.17;68.07;100880.94;5009273;28;20029;-52
2021/08/23 03:05:49;;;;;;;7.00;5.88;;;;;;;19.18;68.06;100889.84;5006512;28;20041;-51
2021/08/23 03:08:14;;;;;;;8.48;6.45;;;;;;;19.18;68.00;100885.34;5009101;28;20034;-51
2021/08/23 03:10:41;;;;;;;6.93;6.32;;;;;;;19.16;68.07;100891.69;5004760;28;20022;-52
2021/08/23 03:13:06;;;;;;;6.88;6.20;;;;;;;19.14;68.37;100889.09;4988604;28;20068;-52
2021/08/23 03:15:31;;;;;;;6.47;5.97;;;;;;;19.12;68.33;100884.75;5002656;28;20022;-51
2021/08/23 03:17:57;;;;;;;7.03;6.43;;;;;;;19.15;68.01;100885.50;4988884;28;20022;-50
2021/08/23 03:20:22;;;;;;;6.57;5.97;;;;;;;19.13;68.26;100890.03;4989282;28;20469;-52
2021/08/23 03:22:47;;;;;;;6.75;6.05;;;;;;;19.13;68.29;100894.50;5005972;28;20038;-50
2021/08/23 03:25:12;;;;;;;6.75;6.15;;;;;;;19.12;68.28;100890.97;5005374;28;20080;-52
2021/08/23 03:27:38;;;;;;;7.05;6.38;;;;;;;19.11;68.32;100891.91;5006026;28;20383;-52
2021/08/23 03:30:04;;;;;;;7.18;5.95;;;;;;;19.10;68.38;100892.81;5008001;28;20021;-52
2021/08/23 03:32:29;;;;;;;6.53;5.88;;;;;;;19.08;68.45;100881.34;4986192;28;20041;-51
2021/08/23 03:34:55;;;;;;;6.95;6.25;;;;;;;19.09;68.51;100883.06;5003677;28;20027;-52
2021/08/23 03:37:20;;;;;;;6.47;5.68;;;;;;;19.08;68.37;100882.19;4989022;28;20426;-52
2021/08/23 03:39:45;;;;;;;6.65;5.80;;;;;;;19.08;68.38;100884.00;5004968;28;20028;-52
2021/08/23 03:42:11;;;;;;;6.07;5.57;;;;;;;19.03;68.62;100886.84;5007855;28;20038;-51
2021/08/23 03:44:36;;;;;;;8.02;6.40;;;;;;;19.04;68.51;100872.53;5005744;28;20030;-50
2021/08/23 03:47:01;;;;;;;7.03;6.38;;;;;;;19.03;68.61;100881.50;5006407;28;20374;-51
2021/08/23 03:49:30;;;;;;;6.75;6.15;;;;;;;19.03;68.61;100881.50;5006467;28;20033;-51
2021/08/23 03:51:55;;;;;;;6.75;6.10;;;;;;;19.07;68.28;100876.91;5018378;23;20060;-52
2021/08/23 03:54:26;;;;;;;7.00;6.30;;;;;;;19.05;68.57;100878.75;5047430;28;20033;-51
2021/08/23 03:56:51;;;;;;;6.97;6.35;;;;;;;19.04;68.64;100874.34;5046713;28;20024;-51
2021/08/23 03:59:16;;;;;;;7.78;5.93;;;;;;;19.04;68.39;100875.19;5049530;28;20024;-52
2021/08/23 04:01:42;;;;;;;6.80;6.20;;;;;;;19.04;68.68;100880.53;5051746;28;20460;-51
2021/08/23 04:04:07;;;;;;;7.00;5.97;;;;;;;19.03;68.60;100876.16;5043252;28;20059;-50
2021/08/23 04:06:32;;;;;;;6.85;5.80;;;;;;;19.03;68.61;100881.50;5029252;28;20018;-51
2021/08/23 04:08:58;;;;;;;7.35;6.00;;;;;;;19.01;68.64;100878.03;5042102;28;20029;-52
2021/08/23 04:11:23;;;;;;;7.72;6.07;;;;;;;18.99;68.87;100879.88;5040447;28;20083;-52
2021/08/23 04:13:48;;;;;;;7.30;6.70;;;;;;;19.00;68.65;100876.25;5040050;28;20014;-52
2021/08/23 04:16:15;;;;;;;6.45;5.85;;;;;;;18.98;68.91;100878.16;5043802;28;20078;-51
2021/08/23 04:18:41;;;;;;;6.10;5.50;;;;;;;18.97;68.71;100881.72;5042495;28;20104;-53
2021/08/23 04:21:08;;;;;;;6.60;5.93;;;;;;;18.97;68.89;100881.72;5039569;28;20395;-52
2021/08/23 04:23:33;;;;;;;7.07;6.25;;;;;;;18.96;69.07;100882.69;5042277;28;20100;-53
2021/08/23 04:25:59;;;;;;;6.72;5.97;;;;;;;18.95;68.99;100888.97;5021198;28;20108;-52
2021/08/23 04:28:25;;;;;;;6.25;5.65;;;;;;;18.96;69.10;100885.34;5037970;28;20121;-52
2021/08/23 04:30:50;;;;;;;6.90;6.20;;;;;;;18.97;68.97;100884.41;5010114;28;20049;-51
2021/08/23 04:33:16;;;;;;;6.45;5.68;;;;;;;18.95;68.97;100883.63;5034837;28;20026;-53
2021/08/23 04:35:45;;;;;;;7.35;6.65;;;;;;;18.93;69.14;100881.00;5043276;28;20524;-52
2021/08/23 04:38:10;;;;;;;7.65;6.88;;;;;;;18.95;68.97;100883.63;5044727;28;20029;-52
2021/08/23 04:40:35;;;;;;;6.82;6.15;;;;;;;18.94;68.88;100876.53;5044372;28;20559;-52
2021/08/23 04:43:02;;;;;;;6.93;6.20;;;;;;;18.92;69.03;100886.41;5045162;28;20086;-51
2021/08/23 04:45:27;;;;;;;6.10;5.60;;;;;;;18.93;68.91;100888.13;5044127;28;20017;-51
2021/08/23 04:47:52;;;;;;;7.05;6.28;;;;;;;18.93;68.93;100886.34;5034858;28;20183;-52
2021/08/23 04:50:18;;;;;;;6.55;5.90;;;;;;;18.94;69.05;100892.56;5038045;28;20020;-51
2021/08/23 04:52:44;;;;;;;5.97;5.38;;;;;;;18.92;68.92;100883.75;5040013;28;20025;-51
2021/08/23 04:55:10;;;;;;;6.95;6.35;;;;;;;18.93;69.09;100891.69;5022242;28;20037;-51
2021/08/23 04:57:36;;;;;;;6.72;6.13;;;;;;;18.92;69.04;100892.63;5037920;28;20022;-51
2021/08/23 05:00:01;;;;;;;7.30;6.55;;;;;;;18.90;69.19;100888.28;5034770;28;20052;-51
2021/08/23 05:02:26;;;;;;;6.90;6.30;;;;;;;18.90;69.14;100891.81;5037184;28;20018;-51
2021/08/23 05:04:51;;;;;;;8.80;6.50;;;;;;;18.89;69.20;100889.19;5037233;28;20104;-51
2021/08/23 05:07:17;;;;;;;6.78;6.07;;;;;;;18.88;69.21;100898.16;5034410;28;20025;-51
2021/08/23 05:09:42;;;;;;;7.30;6.70;;;;;;;18.90;68.95;100896.31;5031493;28;20017;-52
2021/08/23 05:12:07;;;;;;;8.20;6.25;;;;;;;18.89;69.09;100894.53;5032822;28;20021;-51
2021/08/23 05:14:33;;;;;;;8.00;7.18;;;;;;;18.87;69.28;100907.13;5024431;28;20021;-51
2021/08/23 05:16:58;;;;;;;6.50;5.90;;;;;;;18.89;69.22;100905.22;5036024;28;20033;-51
2021/08/23 05:19:23;;;;;;;6.57;6.07;;;;;;;18.87;69.22;100902.63;5040278;28;20061;-51
2021/08/23 05:21:49;;;;;;;7.78;6.70;;;;;;;18.83;69.16;100904.56;5025657;28;20531;-51
2021/08/23 05:24:14;;;;;;;6.97;6.38;;;;;;;18.83;69.47;100906.34;5030741;28;20071;-52
2021/08/23 05:26:39;;;;;;;6.95;6.35;;;;;;;18.85;69.34;100902.69;5039937;28;20396;-51
2021/08/23 05:29:05;;;;;;;6.43;5.50;;;;;;;18.83;69.44;100906.34;5034334;28;20396;-51
2021/08/23 05:31:30;;;;;;;6.30;5.80;;;;;;;18.82;69.28;100907.28;5041571;28;20032;-51
2021/08/23 05:33:55;;;;;;;6.75;6.05;;;;;;;18.85;69.20;100909.84;5032879;28;20021;-51
2021/08/23 05:36:22;;;;;;;6.88;6.18;;;;;;;18.81;69.47;100898.38;5034983;28;20025;-52
2021/08/23 05:38:48;;;;;;;6.90;6.28;;;;;;;18.84;69.38;100903.63;5035733;28;20396;-52
2021/08/23 05:41:13;;;;;;;6.93;6.22;;;;;;;18.80;69.49;100907.34;5035333;28;20519;-51
2021/08/23 05:43:38;;;;;;;6.53;5.85;;;;;;;18.80;69.31;100907.34;5031544;28;20032;-52
2021/08/23 05:46:04;;;;;;;6.65;5.15;;;;;;;18.79;69.44;100910.97;5033715;28;20076;-52
2021/08/23 05:48:30;;;;;;;6.20;5.60;;;;;;;18.80;69.28;100912.69;5035466;28;20104;-51
2021/08/23 05:50:55;;;;;;;6.20;5.03;;;;;;;18.76;69.55;100905.72;5034359;28;20078;-51
2021/08/23 05:53:20;;;;;;;5.93;5.43;;;;;;;18.77;69.38;100907.47;5023209;28;20032;-51
2021/08/23 05:55:46;;;;;;;6.70;6.13;;;;;;;18.80;69.29;100907.34;5035240;28;20415;-51
2021/08/23 05:58:11;;;;;;;6.93;6.22;;;;;;;18.77;69.65;100909.28;5038424;28;20096;-53
2021/08/23 06:00:36;;;;;;;6.22;5.63;;;;;;;18.78;69.30;100909.22;5038738;28;20021;-51
2021/08/23 06:03:02;;;;;;;5.88;5.38;;;;;;;18.77;69.28;100907.47;5039080;28;20028;-53
2021/08/23 06:05:27;;;;;;;6.68;5.68;;;;;;;18.78;69.46;100914.56;5037255;28;20439;-52
2021/08/23 06:07:52;;;;;;;6.10;5.07;;;;;;;18.74;69.52;100912.94;5038225;28;20553;-51
2021/08/23 06:10:19;;;;;;;5.80;5.22;;;;;;;18.79;69.43;100921.66;5035831;28;20529;-52
2021/08/23 06:12:45;;;;;;;6.85;5.43;;;;;;;18.77;69.53;100917.31;5036917;28;20033;-51
2021/08/23 06:15:10;;;;;;;6.97;5.28;;;;;;;18.77;69.21;100912.81;5022207;28;20097;-52
2021/08/23 06:17:35;;;;;;;5.50;4.88;;;;;;;18.73;69.46;100921.88;5037445;28;20025;-51
2021/08/23 06:20:01;;;;;;;5.55;5.05;;;;;;;18.73;69.57;100921.88;5017659;28;20033;-51
2021/08/23 06:22:26;;;;;;;6.97;4.95;;;;;;;18.73;69.23;100919.22;5021703;28;20477;-51
2021/08/23 06:24:52;;;;;;;5.30;4.80;;;;;;;18.72;69.26;100921.03;5040673;28;20040;-52
2021/08/23 06:27:17;;;;;;;4.95;4.55;;;;;;;18.74;69.17;100930.78;5026165;28;20057;-52
2021/08/23 06:29:43;;;;;;;5.25;4.80;;;;;;;18.72;69.31;100925.50;5038858;28;20107;-52
2021/08/23 06:32:08;;;;;;;5.13;4.72;;;;;;;18.74;69.40;100923.63;5033070;28;20439;-52
2021/08/23 06:34:33;;;;;;;5.22;4.72;;;;;;;18.72;69.30;100922.81;5033918;28;20021;-53
2021/08/23 06:36:59;;;;;;;5.25;4.75;;;;;;;18.73;69.27;100929.91;5034057;28;20036;-53
2021/08/23 06:39:24;;;;;;;4.63;4.22;;;;;;;18.72;69.23;100926.38;5034635;28;20040;-53
2021/08/23 06:41:50;;;;;;;5.70;5.20;;;;;;;18.70;69.51;100927.34;5018854;28;20481;-52
2021/08/23 06:44:16;;;;;;;4.95;4.55;;;;;;;18.68;69.54;100932.72;5033269;28;20539;-51
2021/08/23 06:46:41;;;;;;;5.15;4.75;;;;;;;18.68;69.66;100932.72;5034324;28;20136;-51
2021/08/23 06:49:06;;;;;;;5.25;4.75;;;;;;;18.69;69.67;100936.28;5037689;28;20519;-51
2021/08/23 06:51:32;;;;;;;5.07;4.65;;;;;;;18.72;69.24;100942.41;5038223;28;21505;-52
2021/08/23 06:53:59;;;;;;;4.88;4.38;;;;;;;18.73;69.19;100945.91;5035559;28;20051;-52
2021/08/23 06:56:24;;;;;;;4.90;4.40;;;;;;;18.72;69.33;100946.88;5033757;28;20021;-51
2021/08/23 06:58:50;;;;;;;4.82;4.43;;;;;;;18.69;69.50;100941.63;5024719;28;20026;-51
2021/08/23 07:01:15;;;;;;;4.20;3.90;;;;;;;18.72;69.21;100941.53;5033446;28;20041;-51
2021/08/23 07:03:41;;;;;;;5.47;4.97;;;;;;;18.70;69.29;100941.56;5037665;28;20056;-53
2021/08/23 07:06:06;;;;;;;4.38;4.05;;;;;;;18.70;69.15;100946.03;5015647;28;20067;-52
2021/08/23 07:08:31;;;;;;;4.93;4.43;;;;;;;18.68;69.44;100940.75;5023192;28;20083;-52
2021/08/23 07:10:58;;;;;;;4.85;4.55;;;;;;;18.66;69.43;100947.09;5030356;28;20508;-52
2021/08/23 07:13:23;;;;;;;5.30;4.60;;;;;;;18.69;69.35;100949.66;5037177;28;20142;-52
2021/08/23 07:15:49;;;;;;;4.32;3.85;;;;;;;18.65;69.74;100948.03;5017182;28;20112;-52
2021/08/23 07:18:14;;;;;;;4.38;3.78;;;;;;;18.65;69.66;100962.25;5042708;28;20590;-52
2021/08/23 07:20:39;;;;;;;3.65;3.35;;;;;;;18.66;69.44;100955.09;5034408;28;20044;-51
2021/08/23 07:23:04;;;;;;;3.80;3.50;;;;;;;18.63;69.77;100956.09;5034628;28;20112;-52
2021/08/23 07:25:30;;;;;;;4.40;3.97;;;;;;;18.64;69.88;100959.66;5041545;28;20037;-51
2021/08/23 07:27:57;;;;;;;3.70;3.40;;;;;;;18.63;69.82;100964.13;5013078;28;20033;-51
2021/08/23 07:30:22;;;;;;;3.78;3.47;;;;;;;18.64;69.69;100971.19;5040641;28;20029;-52
2021/08/23 07:32:47;;;;;;;3.70;3.40;;;;;;;18.61;70.16;100971.31;5030658;28;20075;-51
2021/08/23 07:35:13;;;;;;;4.00;3.70;;;;;;;18.63;70.02;100973.91;5034903;28;20020;-52
2021/08/23 07:37:46;;;;;;;3.33;3.13;;;;;;;18.66;69.63;100968.47;5037312;28;20071;-51
2021/08/23 07:40:12;;;;;;;3.63;3.38;;;;;;;18.62;70.21;100977.53;5041337;28;20063;-52
2021/08/23 07:42:38;;;;;;;3.53;3.22;;;;;;;18.57;70.29;100983.03;5040711;28;20039;-51
2021/08/23 07:45:03;;;;;;;3.78;3.47;;;;;;;18.58;70.45;100988.31;5024008;28;20037;-51
2021/08/23 07:47:29;;;;;;;3.75;3.42;;;;;;;18.56;70.36;100982.19;5035872;28;20984;-52
2021/08/23 07:49:54;;;;;;;3.60;3.30;;;;;;;18.56;70.31;100984.84;5038339;28;20550;-51
2021/08/23 07:52:21;;;;;;;3.65;3.42;;;;;;;18.57;70.40;100994.59;5040003;28;20025;-53
2021/08/23 07:54:46;;;;;;;3.65;3.45;;;;;;;18.57;70.21;100991.94;5041916;28;20106;-51
2021/08/23 07:57:12;;;;;;;4.82;4.43;;;;;;;18.58;70.28;100993.66;5048846;28;20904;-51
2021/08/23 07:59:37;;;;;;;4.20;3.88;;;;;;;18.58;70.23;100992.81;5042394;28;20063;-52
2021/08/23 08:02:02;;;;;;;4.85;3.58;;;;;;;18.58;70.42;100990.13;5041390;28;20025;-51
2021/08/23 08:04:28;;;;;;;3.70;3.40;;;;;;;18.55;70.40;100991.13;5037495;28;20503;-50
2021/08/23 08:06:53;;;;;;;3.75;3.45;;;;;;;18.62;70.15;100999.78;5038838;28;20078;-50
2021/08/23 08:09:18;;;;;;;3.83;3.53;;;;;;;18.55;70.42;101004.47;5038096;28;20372;-52
2021/08/23 08:11:43;;;;;;;4.47;4.07;;;;;;;18.57;70.12;101009.75;5044072;28;20130;-51
2021/08/23 08:14:09;;;;;;;4.03;3.60;;;;;;;18.58;70.04;100998.16;5041881;28;20389;-52
2021/08/23 08:16:34;;;;;;;3.55;3.25;;;;;;;18.57;70.28;101015.09;5020057;28;20051;-51
2021/08/23 08:18:59;;;;;;;3.92;3.63;;;;;;;18.53;70.56;101014.34;5040028;28;20033;-51
2021/08/23 08:21:25;;;;;;;4.25;3.85;;;;;;;18.58;70.21;101017.69;5038565;28;20106;-51
2021/08/23 08:23:53;;;;;;;4.30;3.80;;;;;;;18.55;70.42;101019.63;5040463;28;20503;-52
2021/08/23 08:26:24;;;;;;;3.55;3.25;;;;;;;18.56;70.23;101024.03;5038632;28;20103;-51
2021/08/23 08:28:49;;;;;;;4.03;3.72;;;;;;;18.51;70.38;101029.53;5037348;28;20118;-51
2021/08/23 08:32:08;;;;;;;4.90;3.88;;;;;;;18.53;70.17;101026.81;5026321;28;20075;-51
2021/08/23 08:34:33;;;;;;;3.90;3.50;;;;;;;18.54;70.30;101026.75;5037543;28;20059;-51
2021/08/23 08:37:00;;;;;;;3.70;3.40;;;;;;;18.52;70.54;101033.97;5039421;28;20017;-51
2021/08/23 08:39:26;;;;;;;3.67;3.40;;;;;;;18.50;70.59;101042.97;5041804;28;20049;-51
2021/08/23 08:41:51;;;;;;;4.90;3.53;;;;;;;18.50;70.49;101050.97;5036520;28;20032;-51
2021/08/23 08:44:17;;;;;;;4.05;3.75;;;;;;;18.51;70.32;101050.91;5038792;28;20021;-52
2021/08/23 08:46:42;;;;;;;3.92;3.63;;;;;;;18.52;70.12;101063.34;5046974;28;20021;-51
2021/08/23 08:49:11;;;;;;;4.63;4.32;;;;;;;18.54;70.34;101064.16;5042482;28;20036;-52
2021/08/23 08:51:37;;;;;;;3.72;3.42;;;;;;;18.56;70.22;101070.31;5040416;28;20033;-51
2021/08/23 08:54:04;;;;;;;4.53;4.22;;;;;;;18.52;70.12;101063.34;5040068;28;20032;-52
2021/08/23 08:56:32;;;;;;;4.20;3.90;;;;;;;18.51;70.46;101066.94;5036688;28;20409;-51
2021/08/23 08:58:58;;;;;;;4.20;3.80;;;;;;;18.49;70.11;101071.47;5022344;28;20043;-52
2021/08/23 09:01:24;;;;;;;4.32;4.00;;;;;;;18.50;70.38;101070.53;5021400;28;20021;-52
2021/08/23 09:03:49;;;;;;;4.65;4.25;;;;;;;18.51;70.48;101082.09;5045486;28;20113;-52
2021/08/23 09:06:14;;;;;;;4.00;3.70;;;;;;;18.48;70.46;101076.88;5034954;28;20043;-51
2021/08/23 09:08:48;;;;;;;4.85;4.45;;;;;;;18.46;70.74;101084.94;5042006;28;20520;-52
2021/08/23 09:11:16;;;;;;;4.80;4.40;;;;;;;18.45;70.33;101091.19;5037652;28;20034;-52
2021/08/23 09:14:02;;;;;;;5.25;4.82;;;;;;;18.48;70.29;101088.44;5035120;28;20017;-51
2021/08/23 09:16:29;;;;;;;5.65;5.15;;;;;;;18.44;70.46;101092.13;5040515;28;20013;-52
2021/08/23 09:18:55;;;;;;;5.20;4.70;;;;;;;18.46;70.23;101091.16;5033573;28;20116;-51
2021/08/23 09:21:32;;;;;;;5.28;4.88;;;;;;;18.40;70.86;101095.81;5019732;28;20510;-51
2021/08/23 09:23:58;;;;;;;5.15;4.65;;;;;;;18.39;70.76;101099.41;5022673;28;20068;-51
2021/08/23 09:26:27;;;;;;;4.90;4.50;;;;;;;18.41;70.50;101108.25;5037723;28;20488;-51
2021/08/23 09:28:59;;;;;;;6.63;4.72;;;;;;;18.42;70.52;101110.00;5017501;28;20075;-52
2021/08/23 09:31:32;;;;;;;5.28;4.85;;;;;;;18.42;70.18;101104.66;5042157;28;20018;-52
2021/08/23 09:34:00;;;;;;;4.75;4.43;;;;;;;18.42;70.44;101093.97;5036067;28;20026;-51
2021/08/23 09:36:26;;;;;;;5.47;5.05;;;;;;;18.46;70.37;101106.28;5033125;28;20075;-51
2021/08/23 09:39:17;;;;;;;6.40;5.80;;;;;;;18.41;70.61;101110.94;5041489;28;20021;-51
2021/08/23 09:41:42;;;;;;;5.13;4.72;;;;;;;18.37;70.93;101109.28;5037027;28;20021;-50
2021/08/23 09:44:10;;;;;;;8.35;5.20;;;;;;;18.38;70.68;101114.59;5037718;28;20072;-51
2021/08/23 09:46:36;;;;;;;5.80;5.30;;;;;;;18.37;70.85;101119.97;5036148;28;20035;-52
2021/08/23 09:49:04;;;;;;;6.03;5.43;;;;;;;18.42;70.65;101118.88;5041563;28;20031;-52
2021/08/23 09:51:39;;;;;;;6.13;5.18;;;;;;;18.41;70.55;101121.63;5038045;28;20437;-52
2021/08/23 09:54:12;;;;;;;5.75;5.25;;;;;;;18.43;70.56;101133.09;5017793;28;20449;-51
2021/08/23 09:56:49;;;;;;;6.55;5.85;;;;;;;18.37;70.68;101131.50;5034711;28;20049;-51
2021/08/23 09:59:20;;;;;;;6.78;6.18;;;;;;;18.40;70.52;101134.09;5014746;28;20021;-51
2021/08/23 10:01:46;;;;;;;6.22;5.72;;;;;;;18.35;70.79;101144.06;5035940;28;20502;-51
2021/08/23 10:04:13;;;;;;;6.80;6.20;;;;;;;18.35;70.61;101144.06;5018608;28;20029;-52
2021/08/23 10:06:39;;;;;;;6.57;5.97;;;;;;;18.42;70.47;101139.38;5034961;28;20308;-51
2021/08/23 10:09:06;;;;;;;6.07;5.57;;;;;;;18.43;70.30;101141.09;5036567;28;20503;-52
2021/08/23 10:11:32;;;;;;;5.90;5.47;;;;;;;18.34;70.89;101145.84;5035169;28;20112;-51
2021/08/23 10:13:59;;;;;;;5.93;5.43;;;;;;;18.33;70.92;101140.56;5037916;28;20558;-51
2021/08/23 10:16:24;;;;;;;6.50;6.00;;;;;;;18.34;70.80;101153.84;5019833;28;20029;-51
2021/08/23 10:18:50;;;;;;;6.43;5.88;;;;;;;18.39;70.54;101147.47;5016496;28;20029;-52
2021/08/23 10:21:16;;;;;;;7.03;6.00;;;;;;;18.37;70.60;101157.34;5021611;28;20525;-52
2021/08/23 10:23:42;;;;;;;6.28;5.68;;;;;;;18.40;70.63;101149.22;5041626;28;20013;-52
2021/08/23 10:26:07;;;;;;;6.28;5.25;;;;;;;18.37;70.57;101152.03;5020366;28;20037;-52
2021/08/23 10:28:37;;;;;;;6.25;5.75;;;;;;;18.30;70.91;101157.56;5036019;28;20400;-51
2021/08/23 10:31:10;;;;;;;6.30;5.80;;;;;;;18.32;70.84;101158.38;5034859;28;20033;-50
2021/08/23 10:33:42;;;;;;;5.63;5.18;;;;;;;18.27;71.00;101159.47;5036638;28;20029;-52
2021/08/23 10:36:12;;;;;;;6.40;5.80;;;;;;;18.28;71.07;101169.22;5037351;28;20017;-52
2021/08/23 10:38:38;;;;;;;5.68;5.22;;;;;;;18.32;70.82;101163.72;5034871;28;20013;-51
2021/08/23 10:41:09;;;;;;;5.63;5.13;;;;;;;18.32;71.01;101163.72;5036354;28;20049;-51
2021/08/23 10:43:46;;;;;;;5.75;5.15;;;;;;;18.37;70.80;101165.38;5018128;28;20108;-53
2021/08/23 10:46:39;;;;;;;7.22;5.43;;;;;;;18.39;70.76;101168.84;5038025;28;20826;-52
2021/08/23 10:49:10;;;;;;;5.75;5.25;;;;;;;18.36;70.80;101166.28;5015634;28;20096;-52
2021/08/23 10:51:37;;;;;;;6.47;5.80;;;;;;;18.32;71.12;101166.41;5037443;28;20073;-52
2021/08/23 10:54:28;;;;;;;5.65;5.18;;;;;;;18.31;71.11;101169.97;5023749;28;20524;-51
2021/08/23 10:56:59;;;;;;;6.15;5.57;;;;;;;18.33;70.85;101180.59;5006416;28;20064;-52
2021/08/23 10:59:36;;;;;;;5.63;5.00;;;;;;;18.33;70.72;101184.16;5033424;28;20057;-51
2021/08/23 11:02:01;;;;;;;6.18;5.38;;;;;;;18.26;71.01;101185.28;5034654;28;20480;-51
2021/08/23 11:04:38;;;;;;;5.60;5.07;;;;;;;18.26;70.84;101182.63;5016875;28;20029;-51
2021/08/23 11:07:05;;;;;;;6.13;5.63;;;;;;;18.33;70.87;101181.50;5033417;28;20018;-51
2021/08/23 11:09:42;;;;;;;5.88;5.38;;;;;;;18.28;70.71;101186.09;5028279;28;20031;-52
2021/08/23 11:12:16;;;;;;;6.43;5.45;;;;;;;18.30;70.75;101189.59;5028049;28;20067;-52
2021/08/23 11:14:43;;;;;;;5.32;4.82;;;;;;;18.37;70.46;101203.59;5041562;28;20087;-52
2021/08/23 11:17:09;;;;;;;5.20;4.80;;;;;;;18.34;70.46;101206.38;5036993;28;20029;-51
2021/08/23 11:19:37;;;;;;;5.82;5.35;;;;;;;18.31;70.82;101206.50;5042343;28;20083;-51
2021/08/23 11:22:03;;;;;;;5.75;5.25;;;;;;;18.26;70.71;101211.97;5017395;28;20033;-52
2021/08/23 11:24:30;;;;;;;5.88;5.35;;;;;;;18.28;70.66;101215.47;5043235;28;20045;-51